sensor_id;sensor_type;location;lat;lon;timestamp;P1;durP1;ratioP1;P2;durP2;ratioP2
28756;SDS011;44294;48.282;14.282;2024-02-15T00:00:05;14.87;;;8.73;;
28756;SDS011;44294;48.282;14.282;2024-02-15T00:02:54;12.37;;;8.30;;
28756;SDS011;44294;48.282;14.282;2024-02-15T00:05:43;13.90;;;8.33;;
28756;SDS011;44294;48.282;14.282;2024-02-15T00:08:32;14.57;;;9.03;;
28756;SDS011;44294;48.282;14.282;2024-02-15T00:11:21;14.43;;;8.43;;
28756;SDS011;44294;48.282;14.282;2024-02-15T00:14:08;14.63;;;8.73;;
28756;SDS011;44294;48.282;14.282;2024-02-15T00:16:56;14.27;;;8.87;;
28756;SDS011;44294;48.282;14.282;2024-02-15T00:19:44;15.23;;;9.47;;
28756;SDS011;44294;48.282;14.282;2024-02-15T00:22:33;15.10;;;8.83;;
28756;SDS011;44294;48.282;14.282;2024-02-15T00:25:20;14.57;;;9.30;;
28756;SDS011;44294;48.282;14.282;2024-02-15T00:28:07;14.00;;;9.13;;
28756;SDS011;44294;48.282;14.282;2024-02-15T00:30:55;13.53;;;9.27;;
28756;SDS011;44294;48.282;14.282;2024-02-15T00:33:42;13.40;;;9.17;;
28756;SDS011;44294;48.282;14.282;2024-02-15T00:36:29;14.37;;;8.83;;
28756;SDS011;44294;48.282;14.282;2024-02-15T00:39:17;16.93;;;9.53;;
28756;SDS011;44294;48.282;14.282;2024-02-15T00:42:04;19.20;;;10.67;;
28756;SDS011;44294;48.282;14.282;2024-02-15T00:44:53;16.23;;;9.70;;
28756;SDS011;44294;48.282;14.282;2024-02-15T00:47:40;14.53;;;9.40;;
28756;SDS011;44294;48.282;14.282;2024-02-15T00:50:28;15.50;;;9.30;;
28756;SDS011;44294;48.282;14.282;2024-02-15T00:53:16;14.63;;;9.17;;
28756;SDS011;44294;48.282;14.282;2024-02-15T00:56:03;17.90;;;9.43;;
28756;SDS011;44294;48.282;14.282;2024-02-15T00:58:51;14.90;;;9.00;;
28756;SDS011;44294;48.282;14.282;2024-02-15T01:01:38;14.03;;;9.27;;
28756;SDS011;44294;48.282;14.282;2024-02-15T01:04:27;14.30;;;9.20;;
28756;SDS011;44294;48.282;14.282;2024-02-15T01:07:14;14.63;;;9.60;;
28756;SDS011;44294;48.282;14.282;2024-02-15T01:10:02;13.70;;;9.27;;
28756;SDS011;44294;48.282;14.282;2024-02-15T01:12:49;14.83;;;9.27;;
28756;SDS011;44294;48.282;14.282;2024-02-15T01:15:37;16.97;;;9.10;;
28756;SDS011;44294;48.282;14.282;2024-02-15T01:18:25;13.53;;;9.10;;
28756;SDS011;44294;48.282;14.282;2024-02-15T01:21:13;13.77;;;9.17;;
28756;SDS011;44294;48.282;14.282;2024-02-15T01:24:00;14.77;;;9.07;;
28756;SDS011;44294;48.282;14.282;2024-02-15T01:26:48;14.33;;;9.27;;
28756;SDS011;44294;48.282;14.282;2024-02-15T01:29:35;15.43;;;10.03;;
28756;SDS011;44294;48.282;14.282;2024-02-15T01:32:23;13.90;;;8.97;;
28756;SDS011;44294;48.282;14.282;2024-02-15T01:35:11;15.07;;;9.20;;
28756;SDS011;44294;48.282;14.282;2024-02-15T01:37:59;14.87;;;9.00;;
28756;SDS011;44294;48.282;14.282;2024-02-15T01:40:46;13.77;;;9.10;;
28756;SDS011;44294;48.282;14.282;2024-02-15T01:43:35;14.13;;;8.70;;
28756;SDS011;44294;48.282;14.282;2024-02-15T01:46:22;17.47;;;10.50;;
28756;SDS011;44294;48.282;14.282;2024-02-15T01:49:09;15.67;;;9.73;;
28756;SDS011;44294;48.282;14.282;2024-02-15T01:51:58;15.40;;;9.70;;
28756;SDS011;44294;48.282;14.282;2024-02-15T01:54:47;14.63;;;9.67;;
28756;SDS011;44294;48.282;14.282;2024-02-15T01:57:35;13.93;;;8.87;;
28756;SDS011;44294;48.282;14.282;2024-02-15T02:00:24;17.67;;;11.10;;
28756;SDS011;44294;48.282;14.282;2024-02-15T02:03:12;14.03;;;9.27;;
28756;SDS011;44294;48.282;14.282;2024-02-15T02:06:01;15.77;;;9.40;;
28756;SDS011;44294;48.282;14.282;2024-02-15T02:08:49;14.93;;;9.70;;
28756;SDS011;44294;48.282;14.282;2024-02-15T02:11:36;13.30;;;9.27;;
28756;SDS011;44294;48.282;14.282;2024-02-15T02:14:24;13.27;;;9.13;;
28756;SDS011;44294;48.282;14.282;2024-02-15T02:17:14;17.67;;;11.10;;
28756;SDS011;44294;48.282;14.282;2024-02-15T02:20:01;17.93;;;10.03;;
28756;SDS011;44294;48.282;14.282;2024-02-15T02:22:51;17.13;;;9.83;;
28756;SDS011;44294;48.282;14.282;2024-02-15T02:25:41;16.37;;;9.97;;
28756;SDS011;44294;48.282;14.282;2024-02-15T02:28:30;14.67;;;9.87;;
28756;SDS011;44294;48.282;14.282;2024-02-15T02:31:17;20.77;;;11.23;;
28756;SDS011;44294;48.282;14.282;2024-02-15T02:34:05;20.93;;;11.03;;
28756;SDS011;44294;48.282;14.282;2024-02-15T02:36:54;16.67;;;10.70;;
28756;SDS011;44294;48.282;14.282;2024-02-15T02:39:42;15.27;;;10.10;;
28756;SDS011;44294;48.282;14.282;2024-02-15T02:42:30;16.87;;;10.27;;
28756;SDS011;44294;48.282;14.282;2024-02-15T02:45:17;16.57;;;10.40;;
28756;SDS011;44294;48.282;14.282;2024-02-15T02:48:07;17.10;;;10.37;;
28756;SDS011;44294;48.282;14.282;2024-02-15T02:50:54;15.03;;;9.90;;
28756;SDS011;44294;48.282;14.282;2024-02-15T02:53:41;15.50;;;9.80;;
28756;SDS011;44294;48.282;14.282;2024-02-15T02:56:29;15.83;;;10.17;;
28756;SDS011;44294;48.282;14.282;2024-02-15T02:59:16;13.70;;;9.70;;
28756;SDS011;44294;48.282;14.282;2024-02-15T03:02:03;16.00;;;9.83;;
28756;SDS011;44294;48.282;14.282;2024-02-15T03:04:51;15.37;;;9.77;;
28756;SDS011;44294;48.282;14.282;2024-02-15T03:07:40;16.20;;;10.07;;
28756;SDS011;44294;48.282;14.282;2024-02-15T03:10:27;15.00;;;9.67;;
28756;SDS011;44294;48.282;14.282;2024-02-15T03:13:15;16.13;;;10.13;;
28756;SDS011;44294;48.282;14.282;2024-02-15T03:16:02;18.73;;;9.90;;
28756;SDS011;44294;48.282;14.282;2024-02-15T03:18:51;15.33;;;9.90;;
28756;SDS011;44294;48.282;14.282;2024-02-15T03:21:39;15.57;;;9.43;;
28756;SDS011;44294;48.282;14.282;2024-02-15T03:24:28;15.97;;;9.40;;
28756;SDS011;44294;48.282;14.282;2024-02-15T03:27:15;15.07;;;9.53;;
28756;SDS011;44294;48.282;14.282;2024-02-15T03:30:03;15.57;;;9.70;;
28756;SDS011;44294;48.282;14.282;2024-02-15T03:32:51;15.30;;;9.33;;
28756;SDS011;44294;48.282;14.282;2024-02-15T03:35:38;14.30;;;9.63;;
28756;SDS011;44294;48.282;14.282;2024-02-15T03:38:27;16.73;;;10.33;;
28756;SDS011;44294;48.282;14.282;2024-02-15T03:41:15;14.97;;;9.90;;
28756;SDS011;44294;48.282;14.282;2024-02-15T03:44:03;15.67;;;9.93;;
28756;SDS011;44294;48.282;14.282;2024-02-15T03:46:50;15.97;;;10.20;;
28756;SDS011;44294;48.282;14.282;2024-02-15T03:49:38;17.57;;;10.93;;
28756;SDS011;44294;48.282;14.282;2024-02-15T03:52:27;17.97;;;11.20;;
28756;SDS011;44294;48.282;14.282;2024-02-15T03:55:16;18.13;;;11.10;;
28756;SDS011;44294;48.282;14.282;2024-02-15T03:58:03;19.80;;;11.27;;
28756;SDS011;44294;48.282;14.282;2024-02-15T04:00:51;16.87;;;9.93;;
28756;SDS011;44294;48.282;14.282;2024-02-15T04:03:38;16.47;;;10.00;;
28756;SDS011;44294;48.282;14.282;2024-02-15T04:06:26;16.23;;;10.13;;
28756;SDS011;44294;48.282;14.282;2024-02-15T04:09:15;15.63;;;9.80;;
28756;SDS011;44294;48.282;14.282;2024-02-15T04:12:04;14.93;;;10.03;;
28756;SDS011;44294;48.282;14.282;2024-02-15T04:14:51;14.90;;;10.10;;
28756;SDS011;44294;48.282;14.282;2024-02-15T04:17:41;14.43;;;9.60;;
28756;SDS011;44294;48.282;14.282;2024-02-15T04:20:30;15.13;;;9.57;;
28756;SDS011;44294;48.282;14.282;2024-02-15T04:23:17;17.17;;;10.20;;
28756;SDS011;44294;48.282;14.282;2024-02-15T04:26:05;15.80;;;10.10;;
28756;SDS011;44294;48.282;14.282;2024-02-15T04:28:53;15.07;;;10.17;;
28756;SDS011;44294;48.282;14.282;2024-02-15T04:31:41;14.87;;;9.67;;
28756;SDS011;44294;48.282;14.282;2024-02-15T04:34:29;14.43;;;9.40;;
28756;SDS011;44294;48.282;14.282;2024-02-15T04:37:18;15.83;;;9.40;;
28756;SDS011;44294;48.282;14.282;2024-02-15T04:40:07;14.47;;;9.43;;
28756;SDS011;44294;48.282;14.282;2024-02-15T04:42:56;16.03;;;9.97;;
28756;SDS011;44294;48.282;14.282;2024-02-15T04:45:44;15.57;;;9.40;;
28756;SDS011;44294;48.282;14.282;2024-02-15T04:48:32;13.03;;;9.07;;
28756;SDS011;44294;48.282;14.282;2024-02-15T04:51:20;13.00;;;9.00;;
28756;SDS011;44294;48.282;14.282;2024-02-15T04:54:08;14.90;;;9.43;;
28756;SDS011;44294;48.282;14.282;2024-02-15T04:56:57;16.60;;;9.63;;
28756;SDS011;44294;48.282;14.282;2024-02-15T04:59:44;14.43;;;9.23;;
28756;SDS011;44294;48.282;14.282;2024-02-15T05:02:33;13.90;;;9.57;;
28756;SDS011;44294;48.282;14.282;2024-02-15T05:05:22;14.10;;;9.33;;
28756;SDS011;44294;48.282;14.282;2024-02-15T05:08:11;14.00;;;9.67;;
28756;SDS011;44294;48.282;14.282;2024-02-15T05:10:58;14.30;;;9.20;;
28756;SDS011;44294;48.282;14.282;2024-02-15T05:13:45;14.10;;;9.43;;
28756;SDS011;44294;48.282;14.282;2024-02-15T05:16:33;14.80;;;9.37;;
28756;SDS011;44294;48.282;14.282;2024-02-15T05:19:20;13.03;;;9.17;;
28756;SDS011;44294;48.282;14.282;2024-02-15T05:22:07;12.97;;;8.80;;
28756;SDS011;44294;48.282;14.282;2024-02-15T05:24:56;13.83;;;9.13;;
28756;SDS011;44294;48.282;14.282;2024-02-15T05:27:44;14.30;;;9.07;;
28756;SDS011;44294;48.282;14.282;2024-02-15T05:30:33;13.33;;;9.10;;
28756;SDS011;44294;48.282;14.282;2024-02-15T05:33:20;15.37;;;9.30;;
28756;SDS011;44294;48.282;14.282;2024-02-15T05:36:07;15.63;;;9.53;;
28756;SDS011;44294;48.282;14.282;2024-02-15T05:38:55;12.77;;;8.37;;
28756;SDS011;44294;48.282;14.282;2024-02-15T05:41:43;15.27;;;8.93;;
28756;SDS011;44294;48.282;14.282;2024-02-15T05:44:31;13.53;;;9.30;;
28756;SDS011;44294;48.282;14.282;2024-02-15T05:47:18;17.77;;;10.43;;
28756;SDS011;44294;48.282;14.282;2024-02-15T05:50:06;17.37;;;10.60;;
28756;SDS011;44294;48.282;14.282;2024-02-15T05:52:53;17.87;;;10.40;;
28756;SDS011;44294;48.282;14.282;2024-02-15T05:55:41;19.20;;;10.67;;
28756;SDS011;44294;48.282;14.282;2024-02-15T05:58:30;18.83;;;11.03;;
28756;SDS011;44294;48.282;14.282;2024-02-15T06:01:18;22.80;;;11.53;;
28756;SDS011;44294;48.282;14.282;2024-02-15T06:04:06;22.50;;;11.77;;
28756;SDS011;44294;48.282;14.282;2024-02-15T06:06:55;22.50;;;11.73;;
28756;SDS011;44294;48.282;14.282;2024-02-15T06:09:44;20.50;;;11.30;;
28756;SDS011;44294;48.282;14.282;2024-02-15T06:12:31;23.03;;;12.40;;
28756;SDS011;44294;48.282;14.282;2024-02-15T06:15:18;18.17;;;10.73;;
28756;SDS011;44294;48.282;14.282;2024-02-15T06:18:07;18.10;;;11.57;;
28756;SDS011;44294;48.282;14.282;2024-02-15T06:20:56;22.03;;;12.97;;
28756;SDS011;44294;48.282;14.282;2024-02-15T06:23:46;25.63;;;13.93;;
28756;SDS011;44294;48.282;14.282;2024-02-15T06:26:35;24.00;;;13.37;;
28756;SDS011;44294;48.282;14.282;2024-02-15T06:29:23;21.83;;;12.87;;
28756;SDS011;44294;48.282;14.282;2024-02-15T06:32:28;21.40;;;12.83;;
28756;SDS011;44294;48.282;14.282;2024-02-15T06:35:33;21.10;;;12.07;;
28756;SDS011;44294;48.282;14.282;2024-02-15T06:38:39;19.13;;;11.60;;
28756;SDS011;44294;48.282;14.282;2024-02-15T06:41:44;24.43;;;12.27;;
28756;SDS011;44294;48.282;14.282;2024-02-15T06:44:32;23.20;;;12.40;;
28756;SDS011;44294;48.282;14.282;2024-02-15T06:47:19;21.07;;;12.40;;
28756;SDS011;44294;48.282;14.282;2024-02-15T06:50:07;18.17;;;11.70;;
28756;SDS011;44294;48.282;14.282;2024-02-15T06:52:55;22.13;;;11.83;;
28756;SDS011;44294;48.282;14.282;2024-02-15T06:55:43;19.23;;;11.37;;
28756;SDS011;44294;48.282;14.282;2024-02-15T06:58:31;18.47;;;11.90;;
28756;SDS011;44294;48.282;14.282;2024-02-15T07:01:18;19.37;;;11.53;;
28756;SDS011;44294;48.282;14.282;2024-02-15T07:04:06;19.90;;;11.97;;
28756;SDS011;44294;48.282;14.282;2024-02-15T07:06:54;20.83;;;11.57;;
28756;SDS011;44294;48.282;14.282;2024-02-15T07:09:42;22.50;;;12.07;;
28756;SDS011;44294;48.282;14.282;2024-02-15T07:12:29;19.57;;;12.80;;
28756;SDS011;44294;48.282;14.282;2024-02-15T07:15:18;19.27;;;12.43;;
28756;SDS011;44294;48.282;14.282;2024-02-15T07:18:06;20.23;;;13.10;;
28756;SDS011;44294;48.282;14.282;2024-02-15T07:20:53;20.67;;;12.60;;
28756;SDS011;44294;48.282;14.282;2024-02-15T07:23:42;20.07;;;12.67;;
28756;SDS011;44294;48.282;14.282;2024-02-15T07:26:30;19.60;;;12.70;;
28756;SDS011;44294;48.282;14.282;2024-02-15T07:29:17;24.97;;;13.80;;
28756;SDS011;44294;48.282;14.282;2024-02-15T07:32:05;23.70;;;14.30;;
28756;SDS011;44294;48.282;14.282;2024-02-15T07:34:52;23.77;;;13.83;;
28756;SDS011;44294;48.282;14.282;2024-02-15T07:37:40;22.63;;;13.30;;
28756;SDS011;44294;48.282;14.282;2024-02-15T07:40:28;23.83;;;14.60;;
28756;SDS011;44294;48.282;14.282;2024-02-15T07:43:16;23.27;;;13.93;;
28756;SDS011;44294;48.282;14.282;2024-02-15T07:46:03;23.30;;;13.87;;
28756;SDS011;44294;48.282;14.282;2024-02-15T07:48:50;33.33;;;15.07;;
28756;SDS011;44294;48.282;14.282;2024-02-15T07:51:38;26.23;;;14.93;;
28756;SDS011;44294;48.282;14.282;2024-02-15T07:54:25;24.17;;;14.17;;
28756;SDS011;44294;48.282;14.282;2024-02-15T07:57:12;24.80;;;14.03;;
28756;SDS011;44294;48.282;14.282;2024-02-15T08:00:00;22.47;;;13.50;;
28756;SDS011;44294;48.282;14.282;2024-02-15T08:02:48;25.13;;;13.57;;
28756;SDS011;44294;48.282;14.282;2024-02-15T08:05:35;23.07;;;13.27;;
28756;SDS011;44294;48.282;14.282;2024-02-15T08:08:24;22.03;;;13.67;;
28756;SDS011;44294;48.282;14.282;2024-02-15T08:11:11;22.00;;;14.07;;
28756;SDS011;44294;48.282;14.282;2024-02-15T08:14:02;25.43;;;13.60;;
28756;SDS011;44294;48.282;14.282;2024-02-15T08:16:49;24.73;;;13.80;;
28756;SDS011;44294;48.282;14.282;2024-02-15T08:19:37;25.27;;;13.37;;
28756;SDS011;44294;48.282;14.282;2024-02-15T08:22:25;21.00;;;12.80;;
28756;SDS011;44294;48.282;14.282;2024-02-15T08:25:13;20.67;;;12.40;;
28756;SDS011;44294;48.282;14.282;2024-02-15T08:28:02;21.47;;;12.20;;
28756;SDS011;44294;48.282;14.282;2024-02-15T08:30:52;22.27;;;12.47;;
28756;SDS011;44294;48.282;14.282;2024-02-15T08:33:39;22.63;;;12.70;;
28756;SDS011;44294;48.282;14.282;2024-02-15T08:36:27;24.03;;;12.40;;
28756;SDS011;44294;48.282;14.282;2024-02-15T08:39:14;18.70;;;12.23;;
28756;SDS011;44294;48.282;14.282;2024-02-15T08:42:03;21.00;;;13.20;;
28756;SDS011;44294;48.282;14.282;2024-02-15T08:44:50;22.10;;;13.30;;
28756;SDS011;44294;48.282;14.282;2024-02-15T08:47:38;22.43;;;13.53;;
28756;SDS011;44294;48.282;14.282;2024-02-15T08:50:26;21.77;;;12.90;;
28756;SDS011;44294;48.282;14.282;2024-02-15T08:53:14;23.10;;;12.77;;
28756;SDS011;44294;48.282;14.282;2024-02-15T08:56:02;28.83;;;13.13;;
28756;SDS011;44294;48.282;14.282;2024-02-15T08:58:50;20.20;;;12.23;;
28756;SDS011;44294;48.282;14.282;2024-02-15T09:01:37;21.87;;;13.60;;
28756;SDS011;44294;48.282;14.282;2024-02-15T09:04:26;26.53;;;14.47;;
28756;SDS011;44294;48.282;14.282;2024-02-15T09:07:13;28.33;;;15.53;;
28756;SDS011;44294;48.282;14.282;2024-02-15T09:10:01;25.37;;;13.97;;
28756;SDS011;44294;48.282;14.282;2024-02-15T09:12:48;22.47;;;13.40;;
28756;SDS011;44294;48.282;14.282;2024-02-15T09:15:35;23.47;;;14.57;;
28756;SDS011;44294;48.282;14.282;2024-02-15T09:18:23;23.53;;;13.80;;
28756;SDS011;44294;48.282;14.282;2024-02-15T09:21:10;28.83;;;16.43;;
28756;SDS011;44294;48.282;14.282;2024-02-15T09:23:57;33.80;;;18.93;;
28756;SDS011;44294;48.282;14.282;2024-02-15T09:26:44;44.40;;;23.10;;
28756;SDS011;44294;48.282;14.282;2024-02-15T09:29:32;39.67;;;23.23;;
28756;SDS011;44294;48.282;14.282;2024-02-15T09:32:19;33.40;;;19.43;;
28756;SDS011;44294;48.282;14.282;2024-02-15T09:35:09;32.90;;;18.80;;
28756;SDS011;44294;48.282;14.282;2024-02-15T09:37:58;32.17;;;18.10;;
28756;SDS011;44294;48.282;14.282;2024-02-15T09:40:48;35.60;;;19.90;;
28756;SDS011;44294;48.282;14.282;2024-02-15T09:43:34;36.10;;;18.17;;
28756;SDS011;44294;48.282;14.282;2024-02-15T09:46:22;30.67;;;17.13;;
28756;SDS011;44294;48.282;14.282;2024-02-15T09:49:09;34.37;;;19.43;;
28756;SDS011;44294;48.282;14.282;2024-02-15T09:51:58;34.73;;;18.77;;
28756;SDS011;44294;48.282;14.282;2024-02-15T09:54:46;28.60;;;17.23;;
28756;SDS011;44294;48.282;14.282;2024-02-15T09:57:34;27.77;;;16.83;;
28756;SDS011;44294;48.282;14.282;2024-02-15T10:00:21;33.53;;;19.63;;
28756;SDS011;44294;48.282;14.282;2024-02-15T10:03:09;31.13;;;17.17;;
28756;SDS011;44294;48.282;14.282;2024-02-15T10:05:58;43.30;;;21.60;;
28756;SDS011;44294;48.282;14.282;2024-02-15T10:08:45;34.57;;;19.93;;
28756;SDS011;44294;48.282;14.282;2024-02-15T10:11:33;34.87;;;20.27;;
28756;SDS011;44294;48.282;14.282;2024-02-15T10:14:21;36.10;;;21.20;;
28756;SDS011;44294;48.282;14.282;2024-02-15T10:17:09;33.13;;;19.43;;
28756;SDS011;44294;48.282;14.282;2024-02-15T10:20:03;34.53;;;20.77;;
28756;SDS011;44294;48.282;14.282;2024-02-15T10:25:51;39.63;;;21.87;;
28756;SDS011;44294;48.282;14.282;2024-02-15T10:28:40;37.20;;;20.13;;
28756;SDS011;44294;48.282;14.282;2024-02-15T10:31:27;33.10;;;20.10;;
28756;SDS011;44294;48.282;14.282;2024-02-15T10:34:15;37.40;;;21.20;;
28756;SDS011;44294;48.282;14.282;2024-02-15T10:37:11;31.50;;;18.70;;
28756;SDS011;44294;48.282;14.282;2024-02-15T10:40:06;33.90;;;19.50;;
28756;SDS011;44294;48.282;14.282;2024-02-15T10:42:54;31.77;;;18.53;;
28756;SDS011;44294;48.282;14.282;2024-02-15T10:45:43;33.57;;;19.00;;
28756;SDS011;44294;48.282;14.282;2024-02-15T10:48:31;29.10;;;17.67;;
28756;SDS011;44294;48.282;14.282;2024-02-15T10:51:20;28.83;;;17.73;;
28756;SDS011;44294;48.282;14.282;2024-02-15T10:54:07;32.23;;;17.97;;
28756;SDS011;44294;48.282;14.282;2024-02-15T10:57:02;27.60;;;17.00;;
28756;SDS011;44294;48.282;14.282;2024-02-15T10:59:55;21.17;;;12.53;;
28756;SDS011;44294;48.282;14.282;2024-02-15T11:02:54;28.20;;;16.50;;
28756;SDS011;44294;48.282;14.282;2024-02-15T11:05:39;26.97;;;17.63;;
28756;SDS011;44294;48.282;14.282;2024-02-15T11:08:27;25.67;;;14.57;;
28756;SDS011;44294;48.282;14.282;2024-02-15T11:11:14;23.80;;;14.60;;
28756;SDS011;44294;48.282;14.282;2024-02-15T11:17:07;21.33;;;13.53;;
28756;SDS011;44294;48.282;14.282;2024-02-15T11:19:56;19.53;;;12.50;;
28756;SDS011;44294;48.282;14.282;2024-02-15T11:22:44;19.70;;;12.27;;
28756;SDS011;44294;48.282;14.282;2024-02-15T11:25:36;22.33;;;12.60;;
28756;SDS011;44294;48.282;14.282;2024-02-15T11:31:52;20.70;;;12.03;;
28756;SDS011;44294;48.282;14.282;2024-02-15T11:34:41;19.37;;;11.40;;
28756;SDS011;44294;48.282;14.282;2024-02-15T11:36:56;18.47;;;11.73;;
28756;SDS011;44294;48.282;14.282;2024-02-15T11:39:44;17.27;;;11.60;;
28756;SDS011;44294;48.282;14.282;2024-02-15T11:42:33;25.60;;;12.40;;
28756;SDS011;44294;48.282;14.282;2024-02-15T11:45:23;16.50;;;11.27;;
28756;SDS011;44294;48.282;14.282;2024-02-15T11:48:12;17.80;;;10.63;;
28756;SDS011;44294;48.282;14.282;2024-02-15T11:50:59;19.83;;;10.50;;
28756;SDS011;44294;48.282;14.282;2024-02-15T11:53:57;20.57;;;11.70;;
28756;SDS011;44294;48.282;14.282;2024-02-15T11:59:40;14.63;;;9.07;;
28756;SDS011;44294;48.282;14.282;2024-02-15T12:02:41;15.37;;;9.70;;
28756;SDS011;44294;48.282;14.282;2024-02-15T12:05:47;16.83;;;10.87;;
28756;SDS011;44294;48.282;14.282;2024-02-15T12:08:54;16.43;;;9.70;;
28756;SDS011;44294;48.282;14.282;2024-02-15T12:11:59;16.20;;;9.17;;
28756;SDS011;44294;48.282;14.282;2024-02-15T12:15:05;11.97;;;8.30;;
28756;SDS011;44294;48.282;14.282;2024-02-15T12:18:13;12.73;;;8.13;;
28756;SDS011;44294;48.282;14.282;2024-02-15T12:21:21;12.50;;;8.50;;
28756;SDS011;44294;48.282;14.282;2024-02-15T12:24:09;14.03;;;8.90;;
28756;SDS011;44294;48.282;14.282;2024-02-15T12:27:01;12.60;;;8.80;;
28756;SDS011;44294;48.282;14.282;2024-02-15T12:29:55;11.17;;;8.27;;
28756;SDS011;44294;48.282;14.282;2024-02-15T12:32:43;11.57;;;8.10;;
28756;SDS011;44294;48.282;14.282;2024-02-15T12:35:31;11.77;;;7.90;;
28756;SDS011;44294;48.282;14.282;2024-02-15T12:38:18;9.63;;;7.20;;
28756;SDS011;44294;48.282;14.282;2024-02-15T12:41:18;9.83;;;6.77;;
28756;SDS011;44294;48.282;14.282;2024-02-15T12:44:05;13.03;;;7.10;;
28756;SDS011;44294;48.282;14.282;2024-02-15T12:46:54;8.93;;;6.50;;
28756;SDS011;44294;48.282;14.282;2024-02-15T12:49:46;10.53;;;6.40;;
28756;SDS011;44294;48.282;14.282;2024-02-15T12:52:35;7.90;;;5.87;;
28756;SDS011;44294;48.282;14.282;2024-02-15T12:55:23;8.10;;;5.77;;
28756;SDS011;44294;48.282;14.282;2024-02-15T12:58:13;9.50;;;6.30;;
28756;SDS011;44294;48.282;14.282;2024-02-15T13:01:02;9.53;;;5.87;;
28756;SDS011;44294;48.282;14.282;2024-02-15T13:03:50;9.03;;;5.30;;
28756;SDS011;44294;48.282;14.282;2024-02-15T13:06:38;8.10;;;5.20;;
28756;SDS011;44294;48.282;14.282;2024-02-15T13:09:25;7.87;;;5.90;;
28756;SDS011;44294;48.282;14.282;2024-02-15T13:12:13;9.07;;;5.83;;
28756;SDS011;44294;48.282;14.282;2024-02-15T13:15:06;7.50;;;5.20;;
28756;SDS011;44294;48.282;14.282;2024-02-15T13:17:55;7.77;;;4.90;;
28756;SDS011;44294;48.282;14.282;2024-02-15T13:20:43;8.37;;;5.07;;
28756;SDS011;44294;48.282;14.282;2024-02-15T13:23:30;7.47;;;5.27;;
28756;SDS011;44294;48.282;14.282;2024-02-15T13:26:18;6.73;;;4.80;;
28756;SDS011;44294;48.282;14.282;2024-02-15T13:29:06;4.87;;;3.83;;
28756;SDS011;44294;48.282;14.282;2024-02-15T13:31:53;6.13;;;4.30;;
28756;SDS011;44294;48.282;14.282;2024-02-15T13:34:41;6.23;;;4.80;;
28756;SDS011;44294;48.282;14.282;2024-02-15T13:37:28;13.20;;;5.10;;
28756;SDS011;44294;48.282;14.282;2024-02-15T13:40:15;7.47;;;4.77;;
28756;SDS011;44294;48.282;14.282;2024-02-15T13:43:03;5.70;;;4.13;;
28756;SDS011;44294;48.282;14.282;2024-02-15T13:45:51;5.40;;;4.17;;
28756;SDS011;44294;48.282;14.282;2024-02-15T13:48:39;7.73;;;4.93;;
28756;SDS011;44294;48.282;14.282;2024-02-15T13:51:26;6.53;;;4.27;;
28756;SDS011;44294;48.282;14.282;2024-02-15T13:54:13;6.63;;;5.20;;
28756;SDS011;44294;48.282;14.282;2024-02-15T13:57:01;13.00;;;5.00;;
28756;SDS011;44294;48.282;14.282;2024-02-15T13:59:48;7.67;;;5.07;;
28756;SDS011;44294;48.282;14.282;2024-02-15T14:02:36;6.47;;;4.80;;
28756;SDS011;44294;48.282;14.282;2024-02-15T14:05:27;6.13;;;4.70;;
28756;SDS011;44294;48.282;14.282;2024-02-15T14:08:15;7.33;;;5.30;;
28756;SDS011;44294;48.282;14.282;2024-02-15T14:11:03;8.53;;;4.80;;
28756;SDS011;44294;48.282;14.282;2024-02-15T14:13:51;6.00;;;4.30;;
28756;SDS011;44294;48.282;14.282;2024-02-15T14:16:40;6.33;;;4.23;;
28756;SDS011;44294;48.282;14.282;2024-02-15T14:19:29;7.50;;;4.30;;
28756;SDS011;44294;48.282;14.282;2024-02-15T14:22:17;6.40;;;4.50;;
28756;SDS011;44294;48.282;14.282;2024-02-15T14:25:05;6.80;;;4.80;;
28756;SDS011;44294;48.282;14.282;2024-02-15T14:27:53;5.13;;;4.13;;
28756;SDS011;44294;48.282;14.282;2024-02-15T14:30:42;5.90;;;4.30;;
28756;SDS011;44294;48.282;14.282;2024-02-15T14:33:47;8.03;;;5.00;;
28756;SDS011;44294;48.282;14.282;2024-02-15T14:36:36;6.13;;;4.23;;
28756;SDS011;44294;48.282;14.282;2024-02-15T14:39:24;6.13;;;4.53;;
28756;SDS011;44294;48.282;14.282;2024-02-15T14:42:11;7.60;;;4.40;;
28756;SDS011;44294;48.282;14.282;2024-02-15T14:44:59;6.13;;;4.40;;
28756;SDS011;44294;48.282;14.282;2024-02-15T14:47:46;7.63;;;4.60;;
28756;SDS011;44294;48.282;14.282;2024-02-15T14:50:33;7.03;;;4.33;;
28756;SDS011;44294;48.282;14.282;2024-02-15T14:53:21;16.07;;;4.70;;
28756;SDS011;44294;48.282;14.282;2024-02-15T14:56:08;5.67;;;3.80;;
28756;SDS011;44294;48.282;14.282;2024-02-15T14:58:56;4.20;;;3.53;;
28756;SDS011;44294;48.282;14.282;2024-02-15T15:01:43;4.47;;;3.53;;
28756;SDS011;44294;48.282;14.282;2024-02-15T15:04:31;4.53;;;3.67;;
28756;SDS011;44294;48.282;14.282;2024-02-15T15:07:20;5.07;;;3.60;;
28756;SDS011;44294;48.282;14.282;2024-02-15T15:10:25;5.67;;;3.10;;
28756;SDS011;44294;48.282;14.282;2024-02-15T15:13:34;5.13;;;3.47;;
28756;SDS011;44294;48.282;14.282;2024-02-15T15:16:21;4.90;;;3.20;;
28756;SDS011;44294;48.282;14.282;2024-02-15T15:19:10;5.13;;;3.40;;
28756;SDS011;44294;48.282;14.282;2024-02-15T15:21:58;5.37;;;2.83;;
28756;SDS011;44294;48.282;14.282;2024-02-15T15:24:46;5.27;;;2.60;;
28756;SDS011;44294;48.282;14.282;2024-02-15T15:27:33;3.43;;;2.60;;
28756;SDS011;44294;48.282;14.282;2024-02-15T15:30:21;4.10;;;2.30;;
28756;SDS011;44294;48.282;14.282;2024-02-15T15:33:09;2.80;;;2.43;;
28756;SDS011;44294;48.282;14.282;2024-02-15T15:35:57;7.10;;;2.43;;
28756;SDS011;44294;48.282;14.282;2024-02-15T15:38:44;3.63;;;2.40;;
28756;SDS011;44294;48.282;14.282;2024-02-15T15:41:32;8.00;;;2.27;;
28756;SDS011;44294;48.282;14.282;2024-02-15T15:44:20;3.37;;;2.10;;
28756;SDS011;44294;48.282;14.282;2024-02-15T15:47:09;2.17;;;1.90;;
28756;SDS011;44294;48.282;14.282;2024-02-15T15:49:56;2.90;;;2.00;;
28756;SDS011;44294;48.282;14.282;2024-02-15T15:52:46;3.97;;;2.27;;
28756;SDS011;44294;48.282;14.282;2024-02-15T15:55:35;2.70;;;2.10;;
28756;SDS011;44294;48.282;14.282;2024-02-15T15:58:22;2.97;;;2.10;;
28756;SDS011;44294;48.282;14.282;2024-02-15T16:01:10;3.67;;;2.10;;
28756;SDS011;44294;48.282;14.282;2024-02-15T16:03:58;4.43;;;2.17;;
28756;SDS011;44294;48.282;14.282;2024-02-15T16:06:45;2.63;;;2.30;;
28756;SDS011;44294;48.282;14.282;2024-02-15T16:09:33;2.30;;;2.10;;
28756;SDS011;44294;48.282;14.282;2024-02-15T16:12:20;4.23;;;2.10;;
28756;SDS011;44294;48.282;14.282;2024-02-15T16:15:08;4.07;;;2.20;;
28756;SDS011;44294;48.282;14.282;2024-02-15T16:17:55;5.20;;;2.17;;
28756;SDS011;44294;48.282;14.282;2024-02-15T16:20:44;4.63;;;2.20;;
28756;SDS011;44294;48.282;14.282;2024-02-15T16:23:31;2.93;;;2.20;;
28756;SDS011;44294;48.282;14.282;2024-02-15T16:26:19;4.10;;;2.30;;
28756;SDS011;44294;48.282;14.282;2024-02-15T16:29:07;6.03;;;2.30;;
28756;SDS011;44294;48.282;14.282;2024-02-15T16:31:55;3.30;;;2.27;;
28756;SDS011;44294;48.282;14.282;2024-02-15T16:34:42;4.77;;;2.33;;